METAR Data
IDs: Format: Raw Decoded Include TAF

Data at: 1945 UTC 14 Dec 2018

KT20 141935Z AUTO 33015G21KT 10SM OVC032 10/03 A3006 RMK AO2 T01030030
KT20 141915Z AUTO 32013G23KT 10SM OVC030 10/03 A3006 RMK AO2 T01000031
KT20 141855Z AUTO 32011G20KT 10SM OVC028 10/03 A3007 RMK AO2 T00960034
KT20 141835Z AUTO 32011G19KT 10SM OVC026 10/03 A3007 RMK AO2 T00950034
KT20 141815Z AUTO 33012G22KT 10SM OVC026 09/03 A3008 RMK AO2 T00920031
KT20 141755Z AUTO 33009G19KT 10SM OVC026 09/03 A3008 RMK AO2 T00920031 10095 20075
KT20 141735Z AUTO 32012G21KT 10SM OVC026 09/03 A3009 RMK AO2 T00900029
KT20 141715Z AUTO 32012G20KT 10SM OVC026 09/03 A3010 RMK AO2 T00900029
KT20 141655Z AUTO 31015G24KT 10SM OVC026 09/03 A3009 RMK AO2 T00900028
KT20 141635Z AUTO 31016G21KT 10SM OVC026 09/03 A3008 RMK AO2 T00900027
KT20 141615Z AUTO 32012G23KT 10SM OVC026 09/03 A3006 RMK AO2 T00940026
KT20 141555Z AUTO 32014G20KT 10SM OVC026 09/03 A3006 RMK AO2 T00910027
KT20 141535Z AUTO 32014G21KT 10SM OVC026 09/03 A3006 RMK AO2 T00870026
KT20 141515Z AUTO 33014G21KT 10SM BKN026 OVC043 09/03 A3005 RMK AO2 T00930026
KT20 141455Z AUTO 31013G24KT 10SM BKN026 OVC043 09/02 A3005 RMK AO2 T00850024
KT20 141435Z AUTO 31011G20KT 10SM BKN026 OVC045 08/02 A3004 RMK AO2 LTG DSNT NE T00820024
KT20 141415Z AUTO 31014G21KT 10SM BKN028 OVC045 08/02 A3004 RMK AO2 T00750019
KT20 141355Z AUTO 31010G21KT 10SM OVC028 08/02 A3003 RMK AO2 T00750018
KT20 141335Z AUTO 31014G22KT 10SM OVC028 08/02 A3002 RMK AO2 T00750018
KT20 141315Z AUTO 32012G18KT 10SM OVC030 08/02 A3002 RMK AO2 T00750017
KT20 141255Z AUTO 32015G23KT 10SM OVC030 08/02 A3001 RMK AO2 LTG DSNT NE T00760016
KT20 141235Z AUTO 32011G23KT 10SM OVC030 08/02 A3000 RMK AO2 T00770016
KT20 141215Z AUTO 32021G27KT 10SM OVC030 08/02 A2999 RMK AO2 LTG DSNT NE T00790016
KT20 141155Z AUTO 31015G30KT 10SM OVC030 08/02 A2998 RMK AO2 T00800017 10096 20080
KT20 141135Z AUTO 31017G26KT 10SM OVC030 08/02 A2997 RMK AO2 T00810019
KT20 141115Z AUTO 31019G26KT 10SM OVC030 08/02 A2996 RMK AO2 T00810020
KT20 141055Z AUTO 31017G24KT 10SM OVC030 08/02 A2995 RMK AO2 T00840022
KT20 141035Z AUTO 31016G28KT 10SM OVC030 09/02 A2995 RMK AO2 T00850022
KT20 141015Z AUTO 31017G22KT 10SM OVC030 09/03 A2994 RMK AO2 T00850025
KT20 140955Z AUTO 31014G20KT 10SM OVC030 09/03 A2993 RMK AO2 T00850026
KT20 140935Z AUTO 30013G18KT 10SM OVC028 09/03 A2993 RMK AO2 T00850026
KT20 140915Z AUTO 32018G25KT 10SM OVC028 09/03 A2993 RMK AO2 T00850025
KT20 140855Z AUTO 31013G22KT 10SM OVC030 09/03 A2993 RMK AO2 T00860029
KT20 140835Z AUTO 30014G23KT 10SM OVC030 09/03 A2993 RMK AO2 T00860028
KT20 140815Z AUTO 31017G25KT 10SM OVC030 09/03 A2993 RMK AO2 T00860026
KT20 140755Z AUTO 31022G29KT 10SM OVC034 09/03 A2993 RMK AO2 T00880025
KT20 140735Z AUTO 31014G26KT 10SM OVC036 10/03 A2992 RMK AO2 T00950025
KT20 140715Z AUTO 30019G27KT 10SM OVC037 10/03 A2991 RMK AO2 T00950025
KT20 140655Z AUTO 30017G23KT 10SM OVC035 10/03 A2992 RMK AO2 T00950025
KT20 140635Z AUTO 30014G24KT 10SM OVC035 10/03 A2992 RMK AO2 T00950025
KT20 140615Z AUTO 30019G25KT 10SM OVC035 10/03 A2991 RMK AO2 T00950025
KT20 140555Z AUTO 30016G26KT 10SM OVC035 10/03 A2991 RMK AO2 T00960025 10134 20096 402340096
KT20 140535Z AUTO 30018G23KT 10SM OVC035 10/03 A2991 RMK AO2 T00980025
KT20 140515Z AUTO 30019G26KT 10SM OVC037 10/03 A2991 RMK AO2 T00990026
KT20 140455Z AUTO 30014G22KT 10SM OVC037 10/03 A2991 RMK AO2 T01000027
KT20 140435Z AUTO 31012G21KT 10SM OVC037 10/03 A2990 RMK AO2 T01010027
KT20 140415Z AUTO 30014G28KT 10SM OVC039 10/03 A2990 RMK AO2 T01030025
KT20 140355Z AUTO 30012G21KT 10SM OVC041 10/03 A2990 RMK AO2 T01030026
KT20 140335Z AUTO 30016G27KT 10SM OVC041 11/03 A2990 RMK AO2 T01050026
KT20 140315Z AUTO 29014G23KT 10SM OVC041 11/03 A2990 RMK AO2 T01070025
KT20 140255Z AUTO 30013G27KT 10SM OVC043 11/03 A2990 RMK AO2 T01060025
KT20 140235Z AUTO 30019G26KT 10SM OVC045 11/02 A2990 RMK AO2 T01080022
KT20 140215Z AUTO 30013G22KT 10SM BKN045 BKN050 11/03 A2990 RMK AO2 T01080025
KT20 140155Z AUTO 30015G26KT 10SM SCT050 11/02 A2989 RMK AO2 T01090023
KT20 140135Z AUTO 30015G27KT 10SM SCT049 11/02 A2988 RMK AO2 T01110020
KT20 140115Z AUTO 29018G26KT 10SM SCT049 11/02 A2988 RMK AO2 T01140022
KT20 140055Z AUTO 29012G21KT 10SM CLR 12/02 A2987 RMK AO2 T01150024
KT20 140035Z AUTO 29021G28KT 10SM SCT045 12/03 A2987 RMK AO2 T01190025
KT20 140015Z AUTO 30017G24KT 10SM SCT045 12/03 A2986 RMK AO2 T01240034
KT20 132355Z AUTO 30014G24KT 10SM CLR 14/03 A2984 RMK AO2 T01350034 10234 20135
KT20 132335Z AUTO 29019G25KT 10SM CLR 15/03 A2982 RMK AO2 T01460031
KT20 132315Z AUTO 29023G33KT 10SM CLR 17/02 A2980 RMK AO2 T01720024
KT20 132255Z AUTO 29013G21KT 10SM CLR 19/00 A2977 RMK AO2 T01941004
KT20 132235Z AUTO 28014G21KT 10SM CLR 20/00 A2976 RMK AO2 T02001004
KT20 132215Z AUTO 29010G18KT 10SM CLR 21/00 A2975 RMK AO2 T02050000
KT20 132155Z AUTO 30012G16KT 10SM CLR 21/00 A2975 RMK AO2 T02100001
KT20 132135Z AUTO 28014G21KT 10SM SCT100 22/00 A2975 RMK AO2 T02150000
KT20 132115Z AUTO 28014G20KT 10SM BKN100 22/01 A2975 RMK AO2 LTG DSNT N AND NE T02160006
KT20 132055Z AUTO 29011G16KT 10SM OVC100 21/02 A2975 RMK AO2 LTG DSNT N T02110022
KT20 132035Z AUTO 30015G22KT 10SM BKN100 21/03 A2975 RMK AO2 LTG DSNT N T02140026
KT20 132015Z AUTO 31012G21KT 10SM BKN100 23/05 A2974 RMK AO2 T02260045
KT20 131955Z AUTO 29017G25KT 10SM CLR 23/04 A2974 RMK AO2 T02260041
KT20 131935Z AUTO 29016G22KT 10SM CLR 23/06 A2974 RMK AO2 T02280061
KT20 131915Z AUTO 29017G24KT 10SM SCT110 23/07 A2973 RMK AO2 LTG DSNT N T02320067
KT20 131855Z AUTO 29016G23KT 10SM CLR 23/07 A2973 RMK AO2 T02340073
KT20 131835Z AUTO 28015G20KT 10SM CLR 23/11 A2974 RMK AO2 T02280111
KT20 131815Z AUTO 27014G20KT 10SM CLR 22/12 A2974 RMK AO2 LTG DSNT N T02240116
KT20 131755Z AUTO 29013G18KT 10SM CLR 23/11 A2975 RMK AO2 T02280110 10229 20160
KT20 131735Z AUTO 27009G20KT 10SM CLR 22/11 A2976 RMK AO2 T02220107
KT20 131715Z AUTO 28013G18KT 10SM CLR 23/11 A2976 RMK AO2 T02250108
KT20 131655Z AUTO 25010G16KT 10SM CLR 22/13 A2977 RMK AO2 LTG DSNT N T02150129
KT20 131635Z AUTO 25008G17KT 10SM CLR 21/13 A2977 RMK AO2 T02070130
KT20 131615Z AUTO 23010G16KT 10SM CLR 20/13 A2977 RMK AO2 T02010133
KT20 131555Z AUTO 25009G18KT 10SM CLR 20/13 A2978 RMK AO2 T01950133
KT20 131535Z AUTO 24012G17KT 10SM CLR 19/14 A2978 RMK AO2 T01910136
KT20 131515Z AUTO 25009G16KT 10SM CLR 19/14 A2978 RMK AO2 LTG DSNT N T01860138
KT20 131455Z AUTO 25008G14KT 10SM CLR 18/14 A2977 RMK AO2 T01790140
KT20 131435Z AUTO 24008KT 10SM CLR 17/15 A2976 RMK AO2 T01690152
KT20 131415Z AUTO 23005KT 10SM CLR 16/16 A2976 RMK AO2 T01610160
KT20 131355Z AUTO 23005KT 5SM BR BKN006 16/16 A2976 RMK AO2 T01600160
KT20 131335Z AUTO 22005KT 5SM BR OVC006 16/16 A2975 RMK AO2 T01600160
KT20 131315Z AUTO 24003KT 7SM OVC006 17/17 A2974 RMK AO2 T01650165
KT20 131255Z AUTO 23006KT 7SM OVC006 17/17 A2973 RMK AO2 T01660165
KT20 131235Z AUTO 23004KT 10SM OVC006 17/17 A2973 RMK AO2 LTG DSNT NE T01670167
KT20 131215Z AUTO 23005KT 10SM OVC006 17/17 A2972 RMK AO2 T01700170
KT20 131155Z AUTO 24004KT 10SM OVC006 17/17 A2972 RMK AO2 T01700170 10188 20170
KT20 131135Z AUTO 25004KT 7SM OVC006 17/17 A2972 RMK AO2 T01700170
KT20 131115Z AUTO 24005KT 10SM BKN008 17/17 A2972 RMK AO2 T01700170
KT20 131055Z AUTO 23004KT 10SM BKN008 17/17 A2971 RMK AO2 T01730172
KT20 131035Z AUTO 24005KT 10SM OVC008 18/18 A2971 RMK AO2 LTG DSNT NE T01760175
KT20 131015Z AUTO 24005KT 10SM OVC008 18/18 A2972 RMK AO2 LTG DSNT NE AND E T01800177
KT20 130955Z AUTO 24007KT 10SM OVC010 18/18 A2972 RMK AO2 T01800179
KT20 130935Z AUTO 26004KT 10SM BKN012 BKN019 18/18 A2972 RMK AO2 LTG DSNT NE THRU SE T01770177
KT20 130915Z AUTO 30003KT 7SM OVC015 18/18 A2973 RMK AO2 LTG DSNT NE THRU SE T01770177
KT20 130855Z AUTO 29005KT 7SM OVC012 18/18 A2974 RMK AO2 LTG DSNT NE THRU SE T01790179
KT20 130835Z AUTO 00000KT 10SM SCT008 SCT015 18/18 A2973 RMK AO2 T01800180
KT20 130815Z AUTO 00000KT 10SM SCT008 SCT011 18/18 A2974 RMK AO2 LTG DSNT N THRU SE T01820181
KT20 130755Z AUTO 18006KT 10SM OVC008 18/18 A2976 RMK AO2 LTG DSNT NE AND E T01830182